• Coppia_Tornado_camo
  • linea_volo_F104G
  • cockpit_view
  • Tornado_grey
  • F84F_decollo
  • F84F_Garda
  • Benvenuti al 154° Gruppo Virtuale


    Simulazione, Storia e Passione


  • Benvenuti al 154° Gruppo Virtuale


    Simulazione, Storia e Passione


  • Benvenuti al 154° Gruppo Virtuale


    Simulazione, Storia e Passione


  • Benvenuti al 154° Gruppo Virtuale


    Simulazione, Storia e Passione


  • Benvenuti al 154° Gruppo Virtuale


    Simulazione, Storia e Passione


  • Benvenuti al 154° Gruppo Virtuale


    Simulazione, Storia e Passione


METAR & TAF

[Source: ADDS]
METAR
LIPL 230755Z 28004KT 3200 BR FEW030 SCT050 19/15 Q1010 RMK BKN VIS MIN 3200 WIND THR31 28004KT WIND THR13 27003KT YLO =
LIPL 230800Z 2309/2318 VRB03KT 5000 BR FEW030 SCT060 TEMPO 2309/2310 3500 BR SCT030 SCT050 BECMG 2311/2313 9999 SCT080
TAF
LIPL 230800Z 2309/2318 VRB03KT 5000 BR FEW030 SCT060 TEMPO 2309/2310 3500 BR SCT030 SCT050 BECMG 2311/2313 9999 SCT080 =

Notice: Undefined index: sun in /web/htdocs/www.154gruppovirtuale.it/home/modules/mod_wx/tmpl/default.php on line 13

Simulation Platform